sensor_id;sensor_type;location;lat;lon;timestamp;P1;durP1;ratioP1;P2;durP2;ratioP2
16845;SDS011;8539;53.188;8.696;2023-03-24T00:01:05;12.50;;;4.97;;
16845;SDS011;8539;53.188;8.696;2023-03-24T00:03:32;10.57;;;6.05;;
16845;SDS011;8539;53.188;8.696;2023-03-24T00:05:58;13.52;;;6.20;;
16845;SDS011;8539;53.188;8.696;2023-03-24T00:08:27;13.30;;;5.93;;
16845;SDS011;8539;53.188;8.696;2023-03-24T00:11:00;12.63;;;5.07;;
16845;SDS011;8539;53.188;8.696;2023-03-24T00:13:29;8.80;;;5.50;;
16845;SDS011;8539;53.188;8.696;2023-03-24T00:15:56;8.98;;;4.90;;
16845;SDS011;8539;53.188;8.696;2023-03-24T00:18:23;17.13;;;5.47;;
16845;SDS011;8539;53.188;8.696;2023-03-24T00:20:51;14.63;;;6.13;;
16845;SDS011;8539;53.188;8.696;2023-03-24T00:23:24;9.20;;;5.22;;
16845;SDS011;8539;53.188;8.696;2023-03-24T00:25:58;11.77;;;5.78;;
16845;SDS011;8539;53.188;8.696;2023-03-24T00:28:31;19.52;;;7.15;;
16845;SDS011;8539;53.188;8.696;2023-03-24T00:30:59;10.65;;;4.88;;
16845;SDS011;8539;53.188;8.696;2023-03-24T00:33:27;9.55;;;4.07;;
16845;SDS011;8539;53.188;8.696;2023-03-24T00:35:56;9.15;;;4.07;;
16845;SDS011;8539;53.188;8.696;2023-03-24T00:38:22;13.50;;;4.22;;
16845;SDS011;8539;53.188;8.696;2023-03-24T00:40:48;8.68;;;4.47;;
16845;SDS011;8539;53.188;8.696;2023-03-24T00:43:16;12.25;;;4.55;;
16845;SDS011;8539;53.188;8.696;2023-03-24T00:45:43;6.28;;;4.05;;
16845;SDS011;8539;53.188;8.696;2023-03-24T00:48:13;16.08;;;5.10;;
16845;SDS011;8539;53.188;8.696;2023-03-24T00:50:48;9.15;;;4.15;;
16845;SDS011;8539;53.188;8.696;2023-03-24T00:53:16;10.27;;;4.22;;
16845;SDS011;8539;53.188;8.696;2023-03-24T00:55:43;13.13;;;5.57;;
16845;SDS011;8539;53.188;8.696;2023-03-24T00:58:12;12.05;;;5.30;;
16845;SDS011;8539;53.188;8.696;2023-03-24T01:00:53;13.90;;;5.68;;
16845;SDS011;8539;53.188;8.696;2023-03-24T01:03:22;13.30;;;5.45;;
16845;SDS011;8539;53.188;8.696;2023-03-24T01:05:59;10.02;;;4.97;;
16845;SDS011;8539;53.188;8.696;2023-03-24T01:08:26;11.27;;;4.82;;
16845;SDS011;8539;53.188;8.696;2023-03-24T01:10:53;12.75;;;5.57;;
16845;SDS011;8539;53.188;8.696;2023-03-24T01:13:24;9.00;;;4.32;;
16845;SDS011;8539;53.188;8.696;2023-03-24T01:15:53;24.52;;;6.30;;
16845;SDS011;8539;53.188;8.696;2023-03-24T01:18:20;9.45;;;4.90;;
16845;SDS011;8539;53.188;8.696;2023-03-24T01:20:50;13.75;;;6.38;;
16845;SDS011;8539;53.188;8.696;2023-03-24T01:23:19;14.82;;;5.85;;
16845;SDS011;8539;53.188;8.696;2023-03-24T01:25:48;7.68;;;5.22;;
16845;SDS011;8539;53.188;8.696;2023-03-24T01:28:17;16.08;;;5.25;;
16845;SDS011;8539;53.188;8.696;2023-03-24T01:30:51;7.93;;;4.70;;
16845;SDS011;8539;53.188;8.696;2023-03-24T01:33:18;14.07;;;6.65;;
16845;SDS011;8539;53.188;8.696;2023-03-24T01:35:45;13.18;;;5.55;;
16845;SDS011;8539;53.188;8.696;2023-03-24T01:38:13;9.13;;;5.05;;
16845;SDS011;8539;53.188;8.696;2023-03-24T01:40:41;11.63;;;5.63;;
16845;SDS011;8539;53.188;8.696;2023-03-24T01:46:15;16.88;;;7.68;;
16845;SDS011;8539;53.188;8.696;2023-03-24T01:48:54;14.50;;;6.40;;
16845;SDS011;8539;53.188;8.696;2023-03-24T01:53:54;9.07;;;5.78;;
16845;SDS011;8539;53.188;8.696;2023-03-24T01:56:26;11.32;;;5.68;;
16845;SDS011;8539;53.188;8.696;2023-03-24T01:58:57;12.32;;;7.18;;
16845;SDS011;8539;53.188;8.696;2023-03-24T02:01:28;9.35;;;5.38;;
16845;SDS011;8539;53.188;8.696;2023-03-24T02:03:56;17.95;;;6.63;;
16845;SDS011;8539;53.188;8.696;2023-03-24T02:06:29;11.73;;;6.53;;
16845;SDS011;8539;53.188;8.696;2023-03-24T02:08:58;18.95;;;6.40;;
16845;SDS011;8539;53.188;8.696;2023-03-24T02:11:27;14.50;;;7.18;;
16845;SDS011;8539;53.188;8.696;2023-03-24T02:13:56;17.73;;;8.10;;
16845;SDS011;8539;53.188;8.696;2023-03-24T02:51:07;12.63;;;7.05;;
16845;SDS011;8539;53.188;8.696;2023-03-24T02:56:24;15.02;;;7.90;;
16845;SDS011;8539;53.188;8.696;2023-03-24T02:59:17;11.30;;;7.20;;
16845;SDS011;8539;53.188;8.696;2023-03-24T03:01:49;12.20;;;7.88;;
16845;SDS011;8539;53.188;8.696;2023-03-24T03:05:05;8.02;;;6.72;;
16845;SDS011;8539;53.188;8.696;2023-03-24T03:07:14;12.23;;;6.53;;
16845;SDS011;8539;53.188;8.696;2023-03-24T03:09:48;16.10;;;7.18;;
16845;SDS011;8539;53.188;8.696;2023-03-24T03:12:21;8.85;;;7.30;;
16845;SDS011;8539;53.188;8.696;2023-03-24T03:14:51;12.20;;;6.55;;
16845;SDS011;8539;53.188;8.696;2023-03-24T03:17:26;8.90;;;6.80;;
16845;SDS011;8539;53.188;8.696;2023-03-24T03:20:05;11.18;;;7.78;;
16845;SDS011;8539;53.188;8.696;2023-03-24T03:22:54;10.68;;;6.80;;
16845;SDS011;8539;53.188;8.696;2023-03-24T03:25:29;11.90;;;7.75;;
16845;SDS011;8539;53.188;8.696;2023-03-24T03:28:02;11.25;;;6.85;;
16845;SDS011;8539;53.188;8.696;2023-03-24T03:30:31;12.38;;;8.48;;
16845;SDS011;8539;53.188;8.696;2023-03-24T03:33:08;9.70;;;7.38;;
16845;SDS011;8539;53.188;8.696;2023-03-24T03:36:25;12.25;;;7.25;;
16845;SDS011;8539;53.188;8.696;2023-03-24T03:39:05;13.10;;;7.32;;
16845;SDS011;8539;53.188;8.696;2023-03-24T03:41:38;8.27;;;6.82;;
16845;SDS011;8539;53.188;8.696;2023-03-24T03:44:05;10.15;;;7.00;;
16845;SDS011;8539;53.188;8.696;2023-03-24T03:46:32;11.88;;;7.10;;
16845;SDS011;8539;53.188;8.696;2023-03-24T03:49:01;9.02;;;7.38;;
16845;SDS011;8539;53.188;8.696;2023-03-24T03:51:28;9.48;;;7.28;;
16845;SDS011;8539;53.188;8.696;2023-03-24T03:53:55;8.38;;;7.43;;
16845;SDS011;8539;53.188;8.696;2023-03-24T03:56:26;9.40;;;7.95;;
16845;SDS011;8539;53.188;8.696;2023-03-24T03:58:53;9.70;;;7.53;;
16845;SDS011;8539;53.188;8.696;2023-03-24T04:01:20;11.55;;;8.07;;
16845;SDS011;8539;53.188;8.696;2023-03-24T04:07:30;8.50;;;7.63;;
16845;SDS011;8539;53.188;8.696;2023-03-24T04:09:57;14.85;;;7.88;;
16845;SDS011;8539;53.188;8.696;2023-03-24T04:23:26;9.55;;;6.90;;
16845;SDS011;8539;53.188;8.696;2023-03-24T04:29:25;12.02;;;8.10;;
16845;SDS011;8539;53.188;8.696;2023-03-24T04:32:06;8.57;;;7.30;;
16845;SDS011;8539;53.188;8.696;2023-03-24T04:34:47;11.32;;;7.38;;
16845;SDS011;8539;53.188;8.696;2023-03-24T04:37:20;9.65;;;8.75;;
16845;SDS011;8539;53.188;8.696;2023-03-24T04:39:50;9.77;;;8.23;;
16845;SDS011;8539;53.188;8.696;2023-03-24T04:42:27;8.30;;;7.07;;
16845;SDS011;8539;53.188;8.696;2023-03-24T04:45:13;10.55;;;8.18;;
16845;SDS011;8539;53.188;8.696;2023-03-24T04:48:15;9.93;;;7.88;;
16845;SDS011;8539;53.188;8.696;2023-03-24T04:50:36;9.10;;;7.50;;
16845;SDS011;8539;53.188;8.696;2023-03-24T04:53:04;9.20;;;8.32;;
16845;SDS011;8539;53.188;8.696;2023-03-24T04:58:01;9.60;;;8.70;;
16845;SDS011;8539;53.188;8.696;2023-03-24T05:00:27;10.52;;;8.25;;
16845;SDS011;8539;53.188;8.696;2023-03-24T05:02:53;10.02;;;8.10;;
16845;SDS011;8539;53.188;8.696;2023-03-24T05:05:19;9.25;;;7.85;;
16845;SDS011;8539;53.188;8.696;2023-03-24T05:07:45;8.88;;;7.35;;
16845;SDS011;8539;53.188;8.696;2023-03-24T05:10:11;10.38;;;7.55;;
16845;SDS011;8539;53.188;8.696;2023-03-24T05:12:38;8.23;;;6.85;;
16845;SDS011;8539;53.188;8.696;2023-03-24T05:15:04;8.52;;;7.00;;
16845;SDS011;8539;53.188;8.696;2023-03-24T05:17:31;8.60;;;7.28;;
16845;SDS011;8539;53.188;8.696;2023-03-24T05:19:57;10.05;;;8.43;;
16845;SDS011;8539;53.188;8.696;2023-03-24T05:22:23;15.95;;;8.52;;
16845;SDS011;8539;53.188;8.696;2023-03-24T05:24:50;9.18;;;7.88;;
16845;SDS011;8539;53.188;8.696;2023-03-24T05:27:16;9.18;;;7.72;;
16845;SDS011;8539;53.188;8.696;2023-03-24T05:29:42;8.20;;;7.40;;
16845;SDS011;8539;53.188;8.696;2023-03-24T05:32:08;9.35;;;8.45;;
16845;SDS011;8539;53.188;8.696;2023-03-24T05:34:34;8.88;;;7.97;;
16845;SDS011;8539;53.188;8.696;2023-03-24T05:37:00;8.13;;;7.35;;
16845;SDS011;8539;53.188;8.696;2023-03-24T05:39:26;9.23;;;8.38;;
16845;SDS011;8539;53.188;8.696;2023-03-24T05:41:52;10.48;;;8.05;;
16845;SDS011;8539;53.188;8.696;2023-03-24T05:44:18;8.73;;;7.93;;
16845;SDS011;8539;53.188;8.696;2023-03-24T05:46:44;8.25;;;7.45;;
16845;SDS011;8539;53.188;8.696;2023-03-24T05:49:10;7.95;;;7.15;;
16845;SDS011;8539;53.188;8.696;2023-03-24T05:51:37;8.35;;;7.28;;
16845;SDS011;8539;53.188;8.696;2023-03-24T05:54:03;7.72;;;6.72;;
16845;SDS011;8539;53.188;8.696;2023-03-24T05:56:30;9.52;;;6.82;;
16845;SDS011;8539;53.188;8.696;2023-03-24T05:58:57;6.60;;;5.88;;
16845;SDS011;8539;53.188;8.696;2023-03-24T06:01:23;6.15;;;5.47;;
16845;SDS011;8539;53.188;8.696;2023-03-24T06:03:50;5.10;;;4.45;;
16845;SDS011;8539;53.188;8.696;2023-03-24T06:06:16;4.55;;;3.63;;
16845;SDS011;8539;53.188;8.696;2023-03-24T06:08:43;7.95;;;4.20;;
16845;SDS011;8539;53.188;8.696;2023-03-24T06:11:12;2.92;;;2.40;;
16845;SDS011;8539;53.188;8.696;2023-03-24T06:13:38;5.85;;;2.58;;
16845;SDS011;8539;53.188;8.696;2023-03-24T06:16:05;3.75;;;2.25;;
16845;SDS011;8539;53.188;8.696;2023-03-24T06:18:32;6.63;;;2.45;;
16845;SDS011;8539;53.188;8.696;2023-03-24T06:20:58;4.03;;;2.00;;
16845;SDS011;8539;53.188;8.696;2023-03-24T06:23:25;10.02;;;2.72;;
16845;SDS011;8539;53.188;8.696;2023-03-24T06:25:55;4.60;;;2.00;;
16845;SDS011;8539;53.188;8.696;2023-03-24T06:28:23;7.28;;;1.50;;
16845;SDS011;8539;53.188;8.696;2023-03-24T06:30:50;3.78;;;1.90;;
16845;SDS011;8539;53.188;8.696;2023-03-24T06:33:16;5.93;;;1.58;;
16845;SDS011;8539;53.188;8.696;2023-03-24T06:35:43;5.45;;;1.67;;
16845;SDS011;8539;53.188;8.696;2023-03-24T06:38:09;2.92;;;1.50;;
16845;SDS011;8539;53.188;8.696;2023-03-24T06:40:36;5.30;;;1.13;;
16845;SDS011;8539;53.188;8.696;2023-03-24T06:43:02;3.75;;;1.77;;
16845;SDS011;8539;53.188;8.696;2023-03-24T06:45:28;5.25;;;1.90;;
16845;SDS011;8539;53.188;8.696;2023-03-24T06:47:54;4.82;;;1.63;;
16845;SDS011;8539;53.188;8.696;2023-03-24T06:50:20;4.40;;;1.55;;
16845;SDS011;8539;53.188;8.696;2023-03-24T06:52:47;6.30;;;1.27;;
16845;SDS011;8539;53.188;8.696;2023-03-24T06:55:13;9.00;;;2.42;;
16845;SDS011;8539;53.188;8.696;2023-03-24T06:57:39;3.55;;;1.60;;
16845;SDS011;8539;53.188;8.696;2023-03-24T07:00:06;3.72;;;1.50;;
16845;SDS011;8539;53.188;8.696;2023-03-24T07:02:34;2.55;;;1.55;;
16845;SDS011;8539;53.188;8.696;2023-03-24T07:05:00;5.18;;;1.17;;
16845;SDS011;8539;53.188;8.696;2023-03-24T07:07:33;4.10;;;1.67;;
16845;SDS011;8539;53.188;8.696;2023-03-24T07:10:00;6.30;;;1.88;;
16845;SDS011;8539;53.188;8.696;2023-03-24T07:12:28;6.65;;;1.85;;
16845;SDS011;8539;53.188;8.696;2023-03-24T07:14:55;8.90;;;2.80;;
16845;SDS011;8539;53.188;8.696;2023-03-24T07:17:24;6.55;;;1.60;;
16845;SDS011;8539;53.188;8.696;2023-03-24T07:19:51;10.50;;;1.58;;
16845;SDS011;8539;53.188;8.696;2023-03-24T07:22:17;4.25;;;1.65;;
16845;SDS011;8539;53.188;8.696;2023-03-24T07:24:43;6.55;;;3.25;;
16845;SDS011;8539;53.188;8.696;2023-03-24T07:27:09;6.57;;;1.63;;
16845;SDS011;8539;53.188;8.696;2023-03-24T07:29:36;9.73;;;2.30;;
16845;SDS011;8539;53.188;8.696;2023-03-24T07:32:02;5.82;;;1.50;;
16845;SDS011;8539;53.188;8.696;2023-03-24T07:34:28;5.40;;;1.42;;
16845;SDS011;8539;53.188;8.696;2023-03-24T07:36:56;9.57;;;1.85;;
16845;SDS011;8539;53.188;8.696;2023-03-24T07:39:22;8.90;;;2.22;;
16845;SDS011;8539;53.188;8.696;2023-03-24T07:41:48;10.13;;;4.13;;
16845;SDS011;8539;53.188;8.696;2023-03-24T07:44:15;10.73;;;1.90;;
16845;SDS011;8539;53.188;8.696;2023-03-24T07:46:41;7.40;;;2.78;;
16845;SDS011;8539;53.188;8.696;2023-03-24T07:49:07;8.63;;;2.20;;
16845;SDS011;8539;53.188;8.696;2023-03-24T07:51:33;8.85;;;2.40;;
16845;SDS011;8539;53.188;8.696;2023-03-24T07:53:59;16.98;;;3.33;;
16845;SDS011;8539;53.188;8.696;2023-03-24T07:56:25;8.75;;;3.05;;
16845;SDS011;8539;53.188;8.696;2023-03-24T07:58:51;10.40;;;2.80;;
16845;SDS011;8539;53.188;8.696;2023-03-24T08:01:18;7.60;;;1.80;;
16845;SDS011;8539;53.188;8.696;2023-03-24T08:03:44;12.75;;;2.42;;
16845;SDS011;8539;53.188;8.696;2023-03-24T08:06:13;9.73;;;2.00;;
16845;SDS011;8539;53.188;8.696;2023-03-24T08:08:40;10.63;;;2.00;;
16845;SDS011;8539;53.188;8.696;2023-03-24T08:11:06;7.93;;;2.17;;
16845;SDS011;8539;53.188;8.696;2023-03-24T08:13:32;6.32;;;2.67;;
16845;SDS011;8539;53.188;8.696;2023-03-24T08:15:58;10.48;;;2.20;;
16845;SDS011;8539;53.188;8.696;2023-03-24T08:18:24;4.70;;;1.98;;
16845;SDS011;8539;53.188;8.696;2023-03-24T08:20:53;7.28;;;3.55;;
16845;SDS011;8539;53.188;8.696;2023-03-24T08:23:21;6.80;;;2.88;;
16845;SDS011;8539;53.188;8.696;2023-03-24T08:25:48;8.23;;;1.65;;
16845;SDS011;8539;53.188;8.696;2023-03-24T08:28:15;9.50;;;2.55;;
16845;SDS011;8539;53.188;8.696;2023-03-24T08:30:41;7.68;;;2.03;;
16845;SDS011;8539;53.188;8.696;2023-03-24T08:33:08;7.50;;;2.20;;
16845;SDS011;8539;53.188;8.696;2023-03-24T08:35:37;8.20;;;2.15;;
16845;SDS011;8539;53.188;8.696;2023-03-24T08:38:04;12.52;;;3.20;;
16845;SDS011;8539;53.188;8.696;2023-03-24T08:40:31;10.68;;;2.40;;
16845;SDS011;8539;53.188;8.696;2023-03-24T08:43:05;12.13;;;2.42;;
16845;SDS011;8539;53.188;8.696;2023-03-24T08:45:33;10.82;;;2.72;;
16845;SDS011;8539;53.188;8.696;2023-03-24T08:48:00;10.63;;;2.80;;
16845;SDS011;8539;53.188;8.696;2023-03-24T08:50:28;17.42;;;2.72;;
16845;SDS011;8539;53.188;8.696;2023-03-24T08:52:59;8.57;;;2.72;;
16845;SDS011;8539;53.188;8.696;2023-03-24T08:55:25;6.95;;;2.55;;
16845;SDS011;8539;53.188;8.696;2023-03-24T08:57:52;8.52;;;1.98;;
16845;SDS011;8539;53.188;8.696;2023-03-24T09:00:18;13.55;;;1.80;;
16845;SDS011;8539;53.188;8.696;2023-03-24T09:02:49;11.93;;;2.88;;
16845;SDS011;8539;53.188;8.696;2023-03-24T09:05:17;8.27;;;2.45;;
16845;SDS011;8539;53.188;8.696;2023-03-24T09:07:44;9.60;;;2.88;;
16845;SDS011;8539;53.188;8.696;2023-03-24T09:10:10;11.48;;;2.67;;
16845;SDS011;8539;53.188;8.696;2023-03-24T09:12:37;9.75;;;2.65;;
16845;SDS011;8539;53.188;8.696;2023-03-24T09:15:05;5.63;;;1.70;;
16845;SDS011;8539;53.188;8.696;2023-03-24T09:17:32;16.13;;;2.10;;
16845;SDS011;8539;53.188;8.696;2023-03-24T09:19:59;11.93;;;2.53;;
16845;SDS011;8539;53.188;8.696;2023-03-24T09:22:25;14.75;;;2.20;;
16845;SDS011;8539;53.188;8.696;2023-03-24T09:24:51;4.20;;;2.33;;
16845;SDS011;8539;53.188;8.696;2023-03-24T09:27:18;8.60;;;2.10;;
16845;SDS011;8539;53.188;8.696;2023-03-24T09:29:44;9.02;;;2.28;;
16845;SDS011;8539;53.188;8.696;2023-03-24T09:32:10;16.45;;;2.80;;
16845;SDS011;8539;53.188;8.696;2023-03-24T09:34:36;11.00;;;2.10;;
16845;SDS011;8539;53.188;8.696;2023-03-24T09:37:05;11.65;;;2.83;;
16845;SDS011;8539;53.188;8.696;2023-03-24T09:39:34;12.23;;;2.38;;
16845;SDS011;8539;53.188;8.696;2023-03-24T09:42:02;8.88;;;2.38;;
16845;SDS011;8539;53.188;8.696;2023-03-24T09:44:39;10.90;;;2.47;;
16845;SDS011;8539;53.188;8.696;2023-03-24T09:47:12;9.90;;;2.63;;
16845;SDS011;8539;53.188;8.696;2023-03-24T09:49:48;9.98;;;2.25;;
16845;SDS011;8539;53.188;8.696;2023-03-24T09:52:18;8.18;;;2.08;;
16845;SDS011;8539;53.188;8.696;2023-03-24T09:54:53;11.50;;;2.38;;
16845;SDS011;8539;53.188;8.696;2023-03-24T09:57:44;13.80;;;2.13;;
16845;SDS011;8539;53.188;8.696;2023-03-24T10:00:26;10.05;;;2.38;;
16845;SDS011;8539;53.188;8.696;2023-03-24T10:02:57;11.38;;;2.55;;
16845;SDS011;8539;53.188;8.696;2023-03-24T10:06:01;13.10;;;2.50;;
16845;SDS011;8539;53.188;8.696;2023-03-24T10:08:40;10.65;;;2.13;;
16845;SDS011;8539;53.188;8.696;2023-03-24T10:11:21;9.68;;;2.63;;
16845;SDS011;8539;53.188;8.696;2023-03-24T10:27:32;13.65;;;2.95;;
16845;SDS011;8539;53.188;8.696;2023-03-24T10:30:04;13.10;;;2.78;;
16845;SDS011;8539;53.188;8.696;2023-03-24T10:32:38;16.58;;;2.78;;
16845;SDS011;8539;53.188;8.696;2023-03-24T10:35:07;7.60;;;2.38;;
16845;SDS011;8539;53.188;8.696;2023-03-24T10:37:41;13.18;;;2.45;;
16845;SDS011;8539;53.188;8.696;2023-03-24T10:40:15;14.98;;;3.42;;
16845;SDS011;8539;53.188;8.696;2023-03-24T10:42:44;14.60;;;2.97;;
16845;SDS011;8539;53.188;8.696;2023-03-24T10:45:13;9.55;;;2.55;;
16845;SDS011;8539;53.188;8.696;2023-03-24T10:47:50;19.20;;;2.33;;
16845;SDS011;8539;53.188;8.696;2023-03-24T10:50:23;18.23;;;3.67;;
16845;SDS011;8539;53.188;8.696;2023-03-24T10:52:51;10.93;;;3.00;;
16845;SDS011;8539;53.188;8.696;2023-03-24T10:55:20;11.93;;;2.92;;
16845;SDS011;8539;53.188;8.696;2023-03-24T10:58:00;9.50;;;2.70;;
16845;SDS011;8539;53.188;8.696;2023-03-24T11:00:28;7.47;;;2.58;;
16845;SDS011;8539;53.188;8.696;2023-03-24T11:05:36;13.85;;;2.95;;
16845;SDS011;8539;53.188;8.696;2023-03-24T11:10:56;11.40;;;2.63;;
16845;SDS011;8539;53.188;8.696;2023-03-24T11:19:17;16.20;;;3.22;;
16845;SDS011;8539;53.188;8.696;2023-03-24T11:21:47;9.32;;;2.22;;
16845;SDS011;8539;53.188;8.696;2023-03-24T11:24:17;11.27;;;3.80;;
16845;SDS011;8539;53.188;8.696;2023-03-24T11:26:58;11.00;;;2.83;;
16845;SDS011;8539;53.188;8.696;2023-03-24T11:29:26;11.48;;;2.50;;
16845;SDS011;8539;53.188;8.696;2023-03-24T11:31:55;8.65;;;2.55;;
16845;SDS011;8539;53.188;8.696;2023-03-24T11:35:06;9.50;;;2.60;;
16845;SDS011;8539;53.188;8.696;2023-03-24T11:37:17;13.77;;;3.13;;
16845;SDS011;8539;53.188;8.696;2023-03-24T11:42:56;9.23;;;2.33;;
16845;SDS011;8539;53.188;8.696;2023-03-24T11:48:50;12.15;;;2.83;;
16845;SDS011;8539;53.188;8.696;2023-03-24T11:51:04;14.38;;;4.30;;
16845;SDS011;8539;53.188;8.696;2023-03-24T11:53:45;8.18;;;3.30;;
16845;SDS011;8539;53.188;8.696;2023-03-24T11:58:58;12.55;;;3.10;;
16845;SDS011;8539;53.188;8.696;2023-03-24T12:01:45;5.78;;;2.63;;
16845;SDS011;8539;53.188;8.696;2023-03-24T12:13:24;14.65;;;2.53;;
16845;SDS011;8539;53.188;8.696;2023-03-24T12:18:37;11.10;;;2.75;;
16845;SDS011;8539;53.188;8.696;2023-03-24T12:34:42;12.05;;;2.63;;
16845;SDS011;8539;53.188;8.696;2023-03-24T12:42:38;6.70;;;1.88;;
16845;SDS011;8539;53.188;8.696;2023-03-24T12:52:59;17.08;;;2.75;;
16845;SDS011;8539;53.188;8.696;2023-03-24T12:58:32;7.50;;;2.20;;
16845;SDS011;8539;53.188;8.696;2023-03-24T13:01:07;7.50;;;1.88;;
16845;SDS011;8539;53.188;8.696;2023-03-24T13:03:58;6.68;;;1.55;;
16845;SDS011;8539;53.188;8.696;2023-03-24T13:06:36;8.75;;;1.83;;
16845;SDS011;8539;53.188;8.696;2023-03-24T13:17:44;6.38;;;2.08;;
16845;SDS011;8539;53.188;8.696;2023-03-24T13:20:52;4.15;;;1.60;;
16845;SDS011;8539;53.188;8.696;2023-03-24T13:31:32;4.97;;;1.85;;
16845;SDS011;8539;53.188;8.696;2023-03-24T13:34:03;11.57;;;1.95;;
16845;SDS011;8539;53.188;8.696;2023-03-24T13:37:31;7.65;;;2.25;;
16845;SDS011;8539;53.188;8.696;2023-03-24T13:39:42;7.50;;;2.38;;
16845;SDS011;8539;53.188;8.696;2023-03-24T13:44:57;8.95;;;2.22;;
16845;SDS011;8539;53.188;8.696;2023-03-24T13:47:25;3.85;;;1.42;;
16845;SDS011;8539;53.188;8.696;2023-03-24T13:50:04;8.50;;;1.52;;
16845;SDS011;8539;53.188;8.696;2023-03-24T13:52:35;12.50;;;2.53;;
16845;SDS011;8539;53.188;8.696;2023-03-24T13:55:08;9.20;;;1.83;;
16845;SDS011;8539;53.188;8.696;2023-03-24T13:57:50;11.57;;;2.13;;
16845;SDS011;8539;53.188;8.696;2023-03-24T14:00:21;9.25;;;2.13;;
16845;SDS011;8539;53.188;8.696;2023-03-24T14:02:49;6.65;;;2.95;;
16845;SDS011;8539;53.188;8.696;2023-03-24T14:05:33;7.53;;;3.28;;
16845;SDS011;8539;53.188;8.696;2023-03-24T14:08:10;5.40;;;1.95;;
16845;SDS011;8539;53.188;8.696;2023-03-24T14:24:08;8.80;;;2.60;;
16845;SDS011;8539;53.188;8.696;2023-03-24T14:28:56;9.00;;;2.00;;
16845;SDS011;8539;53.188;8.696;2023-03-24T14:31:29;11.63;;;3.05;;
16845;SDS011;8539;53.188;8.696;2023-03-24T14:36:45;10.07;;;3.45;;
16845;SDS011;8539;53.188;8.696;2023-03-24T14:44:56;5.97;;;1.55;;
16845;SDS011;8539;53.188;8.696;2023-03-24T14:47:24;4.13;;;1.70;;
16845;SDS011;8539;53.188;8.696;2023-03-24T14:49:52;12.10;;;2.25;;
16845;SDS011;8539;53.188;8.696;2023-03-24T14:52:27;9.73;;;1.80;;
16845;SDS011;8539;53.188;8.696;2023-03-24T14:55:00;10.98;;;2.20;;
16845;SDS011;8539;53.188;8.696;2023-03-24T14:57:31;11.75;;;2.55;;
16845;SDS011;8539;53.188;8.696;2023-03-24T15:03:14;6.90;;;1.77;;
16845;SDS011;8539;53.188;8.696;2023-03-24T15:05:48;5.55;;;1.80;;
16845;SDS011;8539;53.188;8.696;2023-03-24T15:08:16;8.55;;;2.28;;
16845;SDS011;8539;53.188;8.696;2023-03-24T15:10:47;11.75;;;1.85;;
16845;SDS011;8539;53.188;8.696;2023-03-24T15:15:54;9.85;;;2.55;;
16845;SDS011;8539;53.188;8.696;2023-03-24T15:18:20;5.50;;;2.47;;
16845;SDS011;8539;53.188;8.696;2023-03-24T15:20:47;10.75;;;2.50;;
16845;SDS011;8539;53.188;8.696;2023-03-24T15:23:25;13.00;;;2.70;;
16845;SDS011;8539;53.188;8.696;2023-03-24T15:25:55;11.55;;;2.58;;
16845;SDS011;8539;53.188;8.696;2023-03-24T15:30:55;7.30;;;2.30;;
16845;SDS011;8539;53.188;8.696;2023-03-24T15:33:25;7.72;;;1.52;;
16845;SDS011;8539;53.188;8.696;2023-03-24T15:35:56;11.13;;;1.55;;
16845;SDS011;8539;53.188;8.696;2023-03-24T15:38:28;5.00;;;1.40;;
16845;SDS011;8539;53.188;8.696;2023-03-24T15:43:24;6.82;;;1.58;;
16845;SDS011;8539;53.188;8.696;2023-03-24T15:45:51;4.15;;;1.27;;
16845;SDS011;8539;53.188;8.696;2023-03-24T15:48:19;4.15;;;1.30;;
16845;SDS011;8539;53.188;8.696;2023-03-24T15:50:59;3.58;;;1.25;;
16845;SDS011;8539;53.188;8.696;2023-03-24T15:56:43;4.65;;;1.20;;
16845;SDS011;8539;53.188;8.696;2023-03-24T15:59:31;3.65;;;1.38;;
16845;SDS011;8539;53.188;8.696;2023-03-24T16:02:00;6.85;;;2.05;;
16845;SDS011;8539;53.188;8.696;2023-03-24T16:04:28;3.97;;;1.70;;
16845;SDS011;8539;53.188;8.696;2023-03-24T16:06:55;4.90;;;1.77;;
16845;SDS011;8539;53.188;8.696;2023-03-24T16:09:22;7.15;;;1.60;;
16845;SDS011;8539;53.188;8.696;2023-03-24T16:11:51;3.65;;;1.30;;
16845;SDS011;8539;53.188;8.696;2023-03-24T16:16:53;5.60;;;1.52;;
16845;SDS011;8539;53.188;8.696;2023-03-24T16:19:28;9.30;;;1.48;;
16845;SDS011;8539;53.188;8.696;2023-03-24T16:21:55;5.97;;;1.58;;
16845;SDS011;8539;53.188;8.696;2023-03-24T16:24:21;4.63;;;1.48;;
16845;SDS011;8539;53.188;8.696;2023-03-24T16:26:47;8.07;;;1.92;;
16845;SDS011;8539;53.188;8.696;2023-03-24T16:31:49;9.95;;;2.13;;
16845;SDS011;8539;53.188;8.696;2023-03-24T16:34:17;4.20;;;1.50;;
16845;SDS011;8539;53.188;8.696;2023-03-24T16:36:44;3.38;;;1.55;;
16845;SDS011;8539;53.188;8.696;2023-03-24T16:39:16;10.27;;;2.30;;
16845;SDS011;8539;53.188;8.696;2023-03-24T16:41:44;4.85;;;1.70;;
16845;SDS011;8539;53.188;8.696;2023-03-24T16:44:10;7.43;;;1.85;;
16845;SDS011;8539;53.188;8.696;2023-03-24T16:46:37;4.60;;;1.42;;
16845;SDS011;8539;53.188;8.696;2023-03-24T16:49:09;7.45;;;1.88;;
16845;SDS011;8539;53.188;8.696;2023-03-24T16:51:38;9.93;;;2.63;;
16845;SDS011;8539;53.188;8.696;2023-03-24T16:54:06;7.32;;;1.65;;
16845;SDS011;8539;53.188;8.696;2023-03-24T16:56:33;8.50;;;2.70;;
16845;SDS011;8539;53.188;8.696;2023-03-24T16:59:00;5.65;;;1.77;;
16845;SDS011;8539;53.188;8.696;2023-03-24T17:04:05;4.15;;;1.90;;
16845;SDS011;8539;53.188;8.696;2023-03-24T17:06:44;5.82;;;2.00;;
16845;SDS011;8539;53.188;8.696;2023-03-24T17:11:44;3.47;;;1.73;;
16845;SDS011;8539;53.188;8.696;2023-03-24T17:14:23;5.70;;;1.77;;
16845;SDS011;8539;53.188;8.696;2023-03-24T17:16:49;7.95;;;2.20;;
16845;SDS011;8539;53.188;8.696;2023-03-24T17:19:18;4.78;;;1.70;;
16845;SDS011;8539;53.188;8.696;2023-03-24T17:21:46;6.40;;;2.92;;
16845;SDS011;8539;53.188;8.696;2023-03-24T17:24:13;4.78;;;1.67;;
16845;SDS011;8539;53.188;8.696;2023-03-24T17:26:41;4.93;;;1.63;;
16845;SDS011;8539;53.188;8.696;2023-03-24T17:29:11;7.95;;;1.52;;
16845;SDS011;8539;53.188;8.696;2023-03-24T17:31:38;8.30;;;1.65;;
16845;SDS011;8539;53.188;8.696;2023-03-24T17:34:04;7.00;;;1.55;;
16845;SDS011;8539;53.188;8.696;2023-03-24T17:36:31;5.97;;;1.85;;
16845;SDS011;8539;53.188;8.696;2023-03-24T17:38:57;5.10;;;2.00;;
16845;SDS011;8539;53.188;8.696;2023-03-24T17:41:23;4.55;;;1.30;;
16845;SDS011;8539;53.188;8.696;2023-03-24T17:43:49;7.40;;;1.98;;
16845;SDS011;8539;53.188;8.696;2023-03-24T17:46:15;5.75;;;1.58;;
16845;SDS011;8539;53.188;8.696;2023-03-24T17:48:41;4.40;;;1.38;;
16845;SDS011;8539;53.188;8.696;2023-03-24T17:51:07;9.10;;;1.58;;
16845;SDS011;8539;53.188;8.696;2023-03-24T17:53:33;7.53;;;1.70;;
16845;SDS011;8539;53.188;8.696;2023-03-24T17:56:01;4.20;;;1.58;;
16845;SDS011;8539;53.188;8.696;2023-03-24T17:58:32;10.88;;;2.63;;
16845;SDS011;8539;53.188;8.696;2023-03-24T18:01:00;6.18;;;1.48;;
16845;SDS011;8539;53.188;8.696;2023-03-24T18:03:27;3.13;;;1.25;;
16845;SDS011;8539;53.188;8.696;2023-03-24T18:05:54;3.00;;;1.40;;
16845;SDS011;8539;53.188;8.696;2023-03-24T18:08:21;2.58;;;1.50;;
16845;SDS011;8539;53.188;8.696;2023-03-24T18:10:47;6.05;;;1.63;;
16845;SDS011;8539;53.188;8.696;2023-03-24T18:13:13;9.95;;;3.22;;
16845;SDS011;8539;53.188;8.696;2023-03-24T18:15:40;9.20;;;3.92;;
16845;SDS011;8539;53.188;8.696;2023-03-24T18:18:07;7.28;;;2.33;;
16845;SDS011;8539;53.188;8.696;2023-03-24T18:20:33;5.57;;;2.10;;
16845;SDS011;8539;53.188;8.696;2023-03-24T18:23:01;5.28;;;2.67;;
16845;SDS011;8539;53.188;8.696;2023-03-24T18:25:27;5.63;;;2.30;;
16845;SDS011;8539;53.188;8.696;2023-03-24T18:27:53;5.88;;;2.15;;
16845;SDS011;8539;53.188;8.696;2023-03-24T18:30:20;7.90;;;1.98;;
16845;SDS011;8539;53.188;8.696;2023-03-24T18:32:47;7.95;;;2.30;;
16845;SDS011;8539;53.188;8.696;2023-03-24T18:35:13;9.63;;;3.55;;
16845;SDS011;8539;53.188;8.696;2023-03-24T18:37:40;6.38;;;2.38;;
16845;SDS011;8539;53.188;8.696;2023-03-24T18:40:07;2.35;;;1.52;;